Mitsukawa Maru — JD2495 — position and weather

sailwx.info

Track history (hours):
 
Tides and Currents Weather Stations Pressure Air Temp Water Temp Dewpoint Dewpoint Depression Visibility Wind Speed Wind Dir Waves Ship Positions

Mitsukawa Maru

Last reported at 2016-Sep-28 15:08 UTC. Time now 2016-Oct-01 03:16 UTC.
Position N 35°02' E 139°36'.

Length 105 m; draft 4.3 m.

Type: Ship (hazmat cat D). MMSI: 431000326.

Date/timePositionNaut miles runAvg speedWind from/ knotsBaromVisibWave heightAir tempDewpointWater temp
2016-Sep-28 15:08N 35°02' E 139°36'3011.6
2016-Sep-28 12:33N 35°30' E 139°51'13 3.1
2016-Sep-28 08:15N 35°34' E 140°07'0 0.0
2016-Sep-28 03:33N 35°34' E 140°07'0 0.0
2016-Sep-28 02:30N 35°34' E 140°07'0 0.0
2016-Sep-28 01:33N 35°34' E 140°07'0 0.0
2016-Sep-27 23:33N 35°34' E 140°07'5 1.1
2016-Sep-27 19:10N 35°35' E 140°01'13 2.9
2016-Sep-27 14:33N 35°27' E 139°49'1110.8
2016-Sep-27 13:33N 35°16' E 139°46'249 5.5
2016-Sep-25 16:33N 34°06' E 134°56'1514.6
2016-Sep-25 15:34N 34°20' E 134°59'1414.0
2016-Sep-25 14:33N 34°34' E 135°03'  
2016-Sep-22 23:29N 34°37' E 134°57'24 8.3
2016-Sep-22 20:33N 34°12' E 134°58'266 5.2
2016-Sep-20 17:28N 35°34' E 140°07'0 0.0
2016-Sep-20 14:31N 35°34' E 140°07'0 0.0
2016-Sep-20 13:31N 35°34' E 140°07'0 0.0
2016-Sep-20 10:28N 35°34' E 140°07'0 0.0
2016-Sep-20 08:31N 35°34' E 140°07'0 0.0
2016-Sep-20 07:31N 35°34' E 140°07'0 0.0
2016-Sep-20 06:25N 35°34' E 140°07'0 0.0
2016-Sep-20 02:28N 35°34' E 140°07'0 0.0
2016-Sep-19 23:33N 35°34' E 140°07'30 7.6
2016-Sep-19 19:33N 35°09' E 139°46'  
Track history (hours):
 
Tides and Currents Weather Stations Pressure Air Temp Water Temp Dewpoint Dewpoint Depression Visibility Wind Speed Wind Dir Waves Ship Positions

Mitsukawa Maru

Last reported at 2016-Sep-28 15:08 UTC. Time now 2016-Oct-01 03:16 UTC.
Position N 35°02' E 139°36'.

Length 105 m; draft 4.3 m.

Type: Ship (hazmat cat D). MMSI: 431000326.

Date/timePositionNaut miles runAvg speedWind from/ knotsBaromVisibWave heightAir tempDewpointWater temp
2016-Sep-28 15:08N 35°02' E 139°36'3011.6
2016-Sep-28 12:33N 35°30' E 139°51'13 3.1
2016-Sep-28 08:15N 35°34' E 140°07'0 0.0
2016-Sep-28 03:33N 35°34' E 140°07'0 0.0
2016-Sep-28 02:30N 35°34' E 140°07'0 0.0
2016-Sep-28 01:33N 35°34' E 140°07'0 0.0
2016-Sep-27 23:33N 35°34' E 140°07'5 1.1
2016-Sep-27 19:10N 35°35' E 140°01'13 2.9
2016-Sep-27 14:33N 35°27' E 139°49'1110.8
2016-Sep-27 13:33N 35°16' E 139°46'249 5.5
2016-Sep-25 16:33N 34°06' E 134°56'1514.6
2016-Sep-25 15:34N 34°20' E 134°59'1414.0
2016-Sep-25 14:33N 34°34' E 135°03'  
2016-Sep-22 23:29N 34°37' E 134°57'24 8.3
2016-Sep-22 20:33N 34°12' E 134°58'266 5.2
2016-Sep-20 17:28N 35°34' E 140°07'0 0.0
2016-Sep-20 14:31N 35°34' E 140°07'0 0.0
2016-Sep-20 13:31N 35°34' E 140°07'0 0.0
2016-Sep-20 10:28N 35°34' E 140°07'0 0.0
2016-Sep-20 08:31N 35°34' E 140°07'0 0.0
2016-Sep-20 07:31N 35°34' E 140°07'0 0.0
2016-Sep-20 06:25N 35°34' E 140°07'0 0.0
2016-Sep-20 02:28N 35°34' E 140°07'0 0.0
2016-Sep-19 23:33N 35°34' E 140°07'30 7.6
2016-Sep-19 19:33N 35°09' E 139°46'  

Dump ship's entire track history